sensor_id;sensor_type;location;lat;lon;timestamp;P1;durP1;ratioP1;P2;durP2;ratioP2
48588;SDS011;34369;51.174;6.738;2023-05-29T00:00:27;27.52;;;25.63;;
48588;SDS011;34369;51.174;6.738;2023-05-29T00:02:59;27.40;;;25.50;;
48588;SDS011;34369;51.174;6.738;2023-05-29T00:05:31;27.50;;;25.50;;
48588;SDS011;34369;51.174;6.738;2023-05-29T00:08:05;27.50;;;25.60;;
48588;SDS011;34369;51.174;6.738;2023-05-29T00:10:37;27.40;;;25.40;;
48588;SDS011;34369;51.174;6.738;2023-05-29T00:13:10;27.08;;;25.27;;
48588;SDS011;34369;51.174;6.738;2023-05-29T00:15:43;27.88;;;25.85;;
48588;SDS011;34369;51.174;6.738;2023-05-29T00:18:15;28.40;;;26.50;;
48588;SDS011;34369;51.174;6.738;2023-05-29T00:20:48;28.10;;;26.20;;
48588;SDS011;34369;51.174;6.738;2023-05-29T00:23:20;27.27;;;25.38;;
48588;SDS011;34369;51.174;6.738;2023-05-29T00:25:53;26.65;;;24.75;;
48588;SDS011;34369;51.174;6.738;2023-05-29T00:28:25;27.85;;;25.95;;
48588;SDS011;34369;51.174;6.738;2023-05-29T00:30:58;27.75;;;25.80;;
48588;SDS011;34369;51.174;6.738;2023-05-29T00:33:31;27.70;;;25.80;;
48588;SDS011;34369;51.174;6.738;2023-05-29T00:36:03;28.27;;;26.38;;
48588;SDS011;34369;51.174;6.738;2023-05-29T00:38:37;27.88;;;25.98;;
48588;SDS011;34369;51.174;6.738;2023-05-29T00:41:12;27.88;;;25.92;;
48588;SDS011;34369;51.174;6.738;2023-05-29T00:43:46;28.27;;;26.30;;
48588;SDS011;34369;51.174;6.738;2023-05-29T00:46:20;27.77;;;25.85;;
48588;SDS011;34369;51.174;6.738;2023-05-29T00:48:52;28.70;;;26.75;;
48588;SDS011;34369;51.174;6.738;2023-05-29T00:51:26;27.65;;;25.70;;
48588;SDS011;34369;51.174;6.738;2023-05-29T00:53:59;27.33;;;25.40;;
48588;SDS011;34369;51.174;6.738;2023-05-29T00:56:31;27.63;;;25.73;;
48588;SDS011;34369;51.174;6.738;2023-05-29T00:59:04;27.95;;;26.05;;
48588;SDS011;34369;51.174;6.738;2023-05-29T01:01:38;27.52;;;25.63;;
48588;SDS011;34369;51.174;6.738;2023-05-29T01:04:11;28.40;;;26.48;;
48588;SDS011;34369;51.174;6.738;2023-05-29T01:06:46;28.40;;;26.40;;
48588;SDS011;34369;51.174;6.738;2023-05-29T01:09:19;29.25;;;27.20;;
48588;SDS011;34369;51.174;6.738;2023-05-29T01:11:54;28.73;;;26.80;;
48588;SDS011;34369;51.174;6.738;2023-05-29T01:14:36;27.90;;;26.00;;
48588;SDS011;34369;51.174;6.738;2023-05-29T01:17:23;28.73;;;26.73;;
48588;SDS011;34369;51.174;6.738;2023-05-29T01:20:12;27.17;;;25.10;;
48588;SDS011;34369;51.174;6.738;2023-05-29T01:26:45;28.60;;;26.60;;
48588;SDS011;34369;51.174;6.738;2023-05-29T01:29:22;29.42;;;27.42;;
48588;SDS011;34369;51.174;6.738;2023-05-29T01:31:58;29.90;;;27.90;;
48588;SDS011;34369;51.174;6.738;2023-05-29T01:34:31;28.92;;;26.92;;
48588;SDS011;34369;51.174;6.738;2023-05-29T01:37:03;29.55;;;27.45;;
48588;SDS011;34369;51.174;6.738;2023-05-29T01:39:36;29.33;;;27.33;;
48588;SDS011;34369;51.174;6.738;2023-05-29T01:42:11;28.42;;;26.42;;
48588;SDS011;34369;51.174;6.738;2023-05-29T01:44:44;28.85;;;26.85;;
48588;SDS011;34369;51.174;6.738;2023-05-29T01:47:18;30.08;;;28.02;;
48588;SDS011;34369;51.174;6.738;2023-05-29T01:49:51;29.05;;;27.05;;
48588;SDS011;34369;51.174;6.738;2023-05-29T01:52:24;28.05;;;26.25;;
48588;SDS011;34369;51.174;6.738;2023-05-29T01:54:56;29.70;;;27.70;;
48588;SDS011;34369;51.174;6.738;2023-05-29T01:57:30;30.05;;;27.95;;
48588;SDS011;34369;51.174;6.738;2023-05-29T02:00:03;29.17;;;27.20;;
48588;SDS011;34369;51.174;6.738;2023-05-29T02:02:39;30.40;;;28.40;;
48588;SDS011;34369;51.174;6.738;2023-05-29T02:05:11;30.77;;;28.73;;
48588;SDS011;34369;51.174;6.738;2023-05-29T02:07:43;29.52;;;27.42;;
48588;SDS011;34369;51.174;6.738;2023-05-29T02:10:16;29.60;;;27.40;;
48588;SDS011;34369;51.174;6.738;2023-05-29T02:12:51;30.10;;;27.92;;
48588;SDS011;34369;51.174;6.738;2023-05-29T02:15:23;30.48;;;28.17;;
48588;SDS011;34369;51.174;6.738;2023-05-29T02:17:56;30.75;;;28.55;;
48588;SDS011;34369;51.174;6.738;2023-05-29T02:20:30;31.13;;;28.83;;
48588;SDS011;34369;51.174;6.738;2023-05-29T02:23:03;30.88;;;28.45;;
48588;SDS011;34369;51.174;6.738;2023-05-29T02:25:35;30.40;;;28.30;;
48588;SDS011;34369;51.174;6.738;2023-05-29T02:28:11;29.92;;;27.83;;
48588;SDS011;34369;51.174;6.738;2023-05-29T02:30:44;30.67;;;28.50;;
48588;SDS011;34369;51.174;6.738;2023-05-29T02:33:16;31.23;;;29.05;;
48588;SDS011;34369;51.174;6.738;2023-05-29T02:35:48;30.80;;;28.60;;
48588;SDS011;34369;51.174;6.738;2023-05-29T02:38:20;30.13;;;28.08;;
48588;SDS011;34369;51.174;6.738;2023-05-29T02:40:53;30.73;;;28.52;;
48588;SDS011;34369;51.174;6.738;2023-05-29T02:43:27;30.15;;;28.15;;
48588;SDS011;34369;51.174;6.738;2023-05-29T02:45:59;30.73;;;28.70;;
48588;SDS011;34369;51.174;6.738;2023-05-29T02:48:33;30.63;;;28.40;;
48588;SDS011;34369;51.174;6.738;2023-05-29T02:51:05;31.13;;;28.92;;
48588;SDS011;34369;51.174;6.738;2023-05-29T02:53:37;30.75;;;28.65;;
48588;SDS011;34369;51.174;6.738;2023-05-29T02:56:10;31.15;;;28.95;;
48588;SDS011;34369;51.174;6.738;2023-05-29T02:58:44;31.90;;;29.50;;
48588;SDS011;34369;51.174;6.738;2023-05-29T03:01:17;31.00;;;28.90;;
48588;SDS011;34369;51.174;6.738;2023-05-29T03:03:51;31.38;;;29.15;;
48588;SDS011;34369;51.174;6.738;2023-05-29T03:06:26;29.75;;;27.65;;
48588;SDS011;34369;51.174;6.738;2023-05-29T03:08:58;29.98;;;27.83;;
48588;SDS011;34369;51.174;6.738;2023-05-29T03:11:31;30.80;;;28.80;;
48588;SDS011;34369;51.174;6.738;2023-05-29T03:14:07;31.33;;;29.10;;
48588;SDS011;34369;51.174;6.738;2023-05-29T03:16:40;31.17;;;28.77;;
48588;SDS011;34369;51.174;6.738;2023-05-29T03:19:14;31.85;;;29.65;;
48588;SDS011;34369;51.174;6.738;2023-05-29T03:21:47;30.67;;;28.50;;
48588;SDS011;34369;51.174;6.738;2023-05-29T03:24:20;32.00;;;29.60;;
48588;SDS011;34369;51.174;6.738;2023-05-29T03:26:53;30.95;;;28.83;;
48588;SDS011;34369;51.174;6.738;2023-05-29T03:29:28;32.75;;;30.40;;
48588;SDS011;34369;51.174;6.738;2023-05-29T03:32:01;30.98;;;28.77;;
48588;SDS011;34369;51.174;6.738;2023-05-29T03:34:34;31.50;;;28.95;;
48588;SDS011;34369;51.174;6.738;2023-05-29T03:37:07;33.08;;;30.30;;
48588;SDS011;34369;51.174;6.738;2023-05-29T03:39:40;31.73;;;29.42;;
48588;SDS011;34369;51.174;6.738;2023-05-29T03:42:15;30.98;;;28.77;;
48588;SDS011;34369;51.174;6.738;2023-05-29T03:44:51;30.77;;;28.48;;
48588;SDS011;34369;51.174;6.738;2023-05-29T03:47:23;31.50;;;29.20;;
48588;SDS011;34369;51.174;6.738;2023-05-29T03:49:56;32.28;;;29.73;;
48588;SDS011;34369;51.174;6.738;2023-05-29T03:52:29;31.40;;;28.97;;
48588;SDS011;34369;51.174;6.738;2023-05-29T03:55:01;32.85;;;30.45;;
48588;SDS011;34369;51.174;6.738;2023-05-29T03:57:34;32.67;;;30.38;;
48588;SDS011;34369;51.174;6.738;2023-05-29T04:00:11;31.08;;;28.98;;
48588;SDS011;34369;51.174;6.738;2023-05-29T04:02:45;33.53;;;30.80;;
48588;SDS011;34369;51.174;6.738;2023-05-29T04:05:17;31.75;;;29.45;;
48588;SDS011;34369;51.174;6.738;2023-05-29T04:07:50;32.20;;;29.95;;
48588;SDS011;34369;51.174;6.738;2023-05-29T04:10:24;34.05;;;31.35;;
48588;SDS011;34369;51.174;6.738;2023-05-29T04:13:06;32.05;;;29.75;;
48588;SDS011;34369;51.174;6.738;2023-05-29T04:15:45;31.45;;;29.05;;
48588;SDS011;34369;51.174;6.738;2023-05-29T04:18:18;30.58;;;28.48;;
48588;SDS011;34369;51.174;6.738;2023-05-29T04:20:52;31.33;;;29.03;;
48588;SDS011;34369;51.174;6.738;2023-05-29T04:23:24;33.63;;;30.95;;
48588;SDS011;34369;51.174;6.738;2023-05-29T04:25:57;32.07;;;29.37;;
48588;SDS011;34369;51.174;6.738;2023-05-29T04:28:32;32.40;;;30.10;;
48588;SDS011;34369;51.174;6.738;2023-05-29T04:31:05;31.45;;;29.13;;
48588;SDS011;34369;51.174;6.738;2023-05-29T04:33:38;32.33;;;29.67;;
48588;SDS011;34369;51.174;6.738;2023-05-29T04:36:11;30.00;;;27.70;;
48588;SDS011;34369;51.174;6.738;2023-05-29T04:38:44;31.58;;;29.00;;
48588;SDS011;34369;51.174;6.738;2023-05-29T04:41:21;30.83;;;28.27;;
48588;SDS011;34369;51.174;6.738;2023-05-29T04:43:59;30.85;;;28.65;;
48588;SDS011;34369;51.174;6.738;2023-05-29T04:46:35;31.73;;;29.50;;
48588;SDS011;34369;51.174;6.738;2023-05-29T04:49:08;30.92;;;28.63;;
48588;SDS011;34369;51.174;6.738;2023-05-29T04:51:43;31.10;;;28.73;;
48588;SDS011;34369;51.174;6.738;2023-05-29T04:54:22;31.80;;;29.33;;
48588;SDS011;34369;51.174;6.738;2023-05-29T04:56:55;32.22;;;29.80;;
48588;SDS011;34369;51.174;6.738;2023-05-29T04:59:29;31.45;;;28.95;;
48588;SDS011;34369;51.174;6.738;2023-05-29T05:02:03;31.63;;;29.05;;
48588;SDS011;34369;51.174;6.738;2023-05-29T05:04:37;31.60;;;29.02;;
48588;SDS011;34369;51.174;6.738;2023-05-29T05:07:10;32.03;;;29.70;;
48588;SDS011;34369;51.174;6.738;2023-05-29T05:09:45;31.50;;;29.15;;
48588;SDS011;34369;51.174;6.738;2023-05-29T05:12:18;32.38;;;30.05;;
48588;SDS011;34369;51.174;6.738;2023-05-29T05:14:51;32.80;;;29.77;;
48588;SDS011;34369;51.174;6.738;2023-05-29T05:17:25;31.55;;;29.30;;
48588;SDS011;34369;51.174;6.738;2023-05-29T05:20:00;31.27;;;28.95;;
48588;SDS011;34369;51.174;6.738;2023-05-29T05:22:36;33.15;;;30.42;;
48588;SDS011;34369;51.174;6.738;2023-05-29T05:25:08;32.40;;;29.85;;
48588;SDS011;34369;51.174;6.738;2023-05-29T05:27:41;31.63;;;28.88;;
48588;SDS011;34369;51.174;6.738;2023-05-29T05:30:14;31.93;;;29.53;;
48588;SDS011;34369;51.174;6.738;2023-05-29T05:32:49;31.20;;;28.92;;
48588;SDS011;34369;51.174;6.738;2023-05-29T05:35:22;31.83;;;29.42;;
48588;SDS011;34369;51.174;6.738;2023-05-29T05:37:55;31.20;;;28.75;;
48588;SDS011;34369;51.174;6.738;2023-05-29T05:40:28;30.63;;;28.13;;
48588;SDS011;34369;51.174;6.738;2023-05-29T05:43:01;30.92;;;28.80;;
48588;SDS011;34369;51.174;6.738;2023-05-29T05:45:37;31.10;;;28.42;;
48588;SDS011;34369;51.174;6.738;2023-05-29T05:48:19;30.77;;;28.55;;
48588;SDS011;34369;51.174;6.738;2023-05-29T05:50:51;31.67;;;29.17;;
48588;SDS011;34369;51.174;6.738;2023-05-29T05:53:24;31.73;;;29.33;;
48588;SDS011;34369;51.174;6.738;2023-05-29T05:55:57;31.60;;;29.10;;
48588;SDS011;34369;51.174;6.738;2023-05-29T05:58:29;32.17;;;29.73;;
48588;SDS011;34369;51.174;6.738;2023-05-29T06:01:05;30.83;;;28.52;;
48588;SDS011;34369;51.174;6.738;2023-05-29T06:03:39;30.75;;;28.42;;
48588;SDS011;34369;51.174;6.738;2023-05-29T06:06:13;31.13;;;28.58;;
48588;SDS011;34369;51.174;6.738;2023-05-29T06:08:47;30.25;;;28.02;;
48588;SDS011;34369;51.174;6.738;2023-05-29T06:11:19;31.13;;;28.80;;
48588;SDS011;34369;51.174;6.738;2023-05-29T06:13:53;29.75;;;27.35;;
48588;SDS011;34369;51.174;6.738;2023-05-29T06:16:32;29.70;;;27.45;;
48588;SDS011;34369;51.174;6.738;2023-05-29T06:19:08;30.10;;;27.85;;
48588;SDS011;34369;51.174;6.738;2023-05-29T06:21:41;30.10;;;27.70;;
48588;SDS011;34369;51.174;6.738;2023-05-29T06:24:15;30.85;;;28.45;;
48588;SDS011;34369;51.174;6.738;2023-05-29T06:26:48;30.60;;;28.35;;
48588;SDS011;34369;51.174;6.738;2023-05-29T06:29:21;31.35;;;28.83;;
48588;SDS011;34369;51.174;6.738;2023-05-29T06:31:54;30.50;;;28.10;;
48588;SDS011;34369;51.174;6.738;2023-05-29T06:34:28;30.92;;;28.33;;
48588;SDS011;34369;51.174;6.738;2023-05-29T06:37:00;31.48;;;28.73;;
48588;SDS011;34369;51.174;6.738;2023-05-29T06:39:33;30.38;;;27.88;;
48588;SDS011;34369;51.174;6.738;2023-05-29T06:42:06;29.40;;;27.10;;
48588;SDS011;34369;51.174;6.738;2023-05-29T06:44:38;29.58;;;27.17;;
48588;SDS011;34369;51.174;6.738;2023-05-29T06:47:12;28.85;;;26.55;;
48588;SDS011;34369;51.174;6.738;2023-05-29T06:49:53;29.48;;;27.17;;
48588;SDS011;34369;51.174;6.738;2023-05-29T06:52:27;30.65;;;28.08;;
48588;SDS011;34369;51.174;6.738;2023-05-29T06:55:01;29.77;;;27.58;;
48588;SDS011;34369;51.174;6.738;2023-05-29T06:57:36;30.65;;;28.27;;
48588;SDS011;34369;51.174;6.738;2023-05-29T07:00:09;29.63;;;27.17;;
48588;SDS011;34369;51.174;6.738;2023-05-29T07:02:43;28.70;;;26.48;;
48588;SDS011;34369;51.174;6.738;2023-05-29T07:05:19;28.40;;;26.20;;
48588;SDS011;34369;51.174;6.738;2023-05-29T07:07:52;29.17;;;26.98;;
48588;SDS011;34369;51.174;6.738;2023-05-29T07:10:24;29.30;;;26.90;;
48588;SDS011;34369;51.174;6.738;2023-05-29T07:12:56;29.30;;;26.85;;
48588;SDS011;34369;51.174;6.738;2023-05-29T07:15:29;28.38;;;26.17;;
48588;SDS011;34369;51.174;6.738;2023-05-29T07:18:02;28.98;;;26.48;;
48588;SDS011;34369;51.174;6.738;2023-05-29T07:20:40;28.58;;;26.15;;
48588;SDS011;34369;51.174;6.738;2023-05-29T07:23:13;29.80;;;27.02;;
48588;SDS011;34369;51.174;6.738;2023-05-29T07:25:47;27.88;;;25.50;;
48588;SDS011;34369;51.174;6.738;2023-05-29T07:28:21;27.77;;;25.67;;
48588;SDS011;34369;51.174;6.738;2023-05-29T07:30:53;28.75;;;26.65;;
48588;SDS011;34369;51.174;6.738;2023-05-29T07:33:39;27.50;;;25.25;;
48588;SDS011;34369;51.174;6.738;2023-05-29T07:44:07;28.70;;;26.40;;
48588;SDS011;34369;51.174;6.738;2023-05-29T07:47:49;27.67;;;25.42;;
48588;SDS011;34369;51.174;6.738;2023-05-29T07:50:30;27.10;;;24.92;;
48588;SDS011;34369;51.174;6.738;2023-05-29T07:54:04;26.30;;;24.20;;
48588;SDS011;34369;51.174;6.738;2023-05-29T08:00:52;25.05;;;22.90;;
48588;SDS011;34369;51.174;6.738;2023-05-29T08:03:24;24.88;;;22.80;;
48588;SDS011;34369;51.174;6.738;2023-05-29T08:06:00;24.95;;;22.88;;
48588;SDS011;34369;51.174;6.738;2023-05-29T08:08:38;24.08;;;21.98;;
48588;SDS011;34369;51.174;6.738;2023-05-29T08:11:17;24.67;;;22.17;;
48588;SDS011;34369;51.174;6.738;2023-05-29T08:13:54;22.98;;;20.98;;
48588;SDS011;34369;51.174;6.738;2023-05-29T08:16:29;23.17;;;21.08;;
48588;SDS011;34369;51.174;6.738;2023-05-29T08:19:04;22.70;;;20.63;;
48588;SDS011;34369;51.174;6.738;2023-05-29T08:24:11;21.90;;;19.95;;
48588;SDS011;34369;51.174;6.738;2023-05-29T08:26:44;22.58;;;20.58;;
48588;SDS011;34369;51.174;6.738;2023-05-29T08:29:20;22.85;;;20.73;;
48588;SDS011;34369;51.174;6.738;2023-05-29T08:31:55;22.30;;;20.20;;
48588;SDS011;34369;51.174;6.738;2023-05-29T08:34:28;21.13;;;19.33;;
48588;SDS011;34369;51.174;6.738;2023-05-29T08:37:02;21.27;;;19.38;;
48588;SDS011;34369;51.174;6.738;2023-05-29T08:39:35;21.40;;;19.42;;
48588;SDS011;34369;51.174;6.738;2023-05-29T08:42:09;21.63;;;19.75;;
48588;SDS011;34369;51.174;6.738;2023-05-29T08:44:50;22.17;;;20.08;;
48588;SDS011;34369;51.174;6.738;2023-05-29T08:47:28;21.30;;;19.38;;
48588;SDS011;34369;51.174;6.738;2023-05-29T08:50:05;21.00;;;19.27;;
48588;SDS011;34369;51.174;6.738;2023-05-29T08:52:39;20.90;;;19.00;;
48588;SDS011;34369;51.174;6.738;2023-05-29T08:55:12;20.58;;;18.60;;
48588;SDS011;34369;51.174;6.738;2023-05-29T08:57:45;21.15;;;19.20;;
48588;SDS011;34369;51.174;6.738;2023-05-29T09:00:20;20.40;;;18.70;;
48588;SDS011;34369;51.174;6.738;2023-05-29T09:02:58;20.98;;;19.05;;
48588;SDS011;34369;51.174;6.738;2023-05-29T09:05:31;20.55;;;18.67;;
48588;SDS011;34369;51.174;6.738;2023-05-29T09:08:03;20.48;;;18.52;;
48588;SDS011;34369;51.174;6.738;2023-05-29T09:10:35;20.90;;;19.00;;
48588;SDS011;34369;51.174;6.738;2023-05-29T09:13:08;19.92;;;18.10;;
48588;SDS011;34369;51.174;6.738;2023-05-29T09:15:44;20.23;;;18.48;;
48588;SDS011;34369;51.174;6.738;2023-05-29T09:18:17;20.25;;;18.25;;
48588;SDS011;34369;51.174;6.738;2023-05-29T09:20:53;20.60;;;18.80;;
48588;SDS011;34369;51.174;6.738;2023-05-29T09:23:25;20.80;;;18.80;;
48588;SDS011;34369;51.174;6.738;2023-05-29T09:25:58;20.05;;;18.35;;
48588;SDS011;34369;51.174;6.738;2023-05-29T09:28:35;20.45;;;18.55;;
48588;SDS011;34369;51.174;6.738;2023-05-29T09:31:15;20.00;;;18.10;;
48588;SDS011;34369;51.174;6.738;2023-05-29T09:33:50;20.00;;;18.27;;
48588;SDS011;34369;51.174;6.738;2023-05-29T09:36:23;20.40;;;18.40;;
48588;SDS011;34369;51.174;6.738;2023-05-29T09:38:56;20.83;;;19.10;;
48588;SDS011;34369;51.174;6.738;2023-05-29T09:41:34;21.27;;;19.33;;
48588;SDS011;34369;51.174;6.738;2023-05-29T09:44:15;21.80;;;19.88;;
48588;SDS011;34369;51.174;6.738;2023-05-29T09:46:50;21.83;;;19.92;;
48588;SDS011;34369;51.174;6.738;2023-05-29T09:49:24;22.15;;;20.10;;
48588;SDS011;34369;51.174;6.738;2023-05-29T09:51:58;21.75;;;19.88;;
48588;SDS011;34369;51.174;6.738;2023-05-29T09:57:23;22.33;;;20.45;;
48588;SDS011;34369;51.174;6.738;2023-05-29T10:00:09;22.42;;;20.42;;
48588;SDS011;34369;51.174;6.738;2023-05-29T10:02:44;23.15;;;21.25;;
48588;SDS011;34369;51.174;6.738;2023-05-29T10:05:19;23.00;;;20.90;;
48588;SDS011;34369;51.174;6.738;2023-05-29T10:07:57;23.33;;;21.15;;
48588;SDS011;34369;51.174;6.738;2023-05-29T10:10:38;22.73;;;20.88;;
48588;SDS011;34369;51.174;6.738;2023-05-29T10:13:16;23.77;;;21.77;;
48588;SDS011;34369;51.174;6.738;2023-05-29T10:15:49;23.77;;;21.77;;
48588;SDS011;34369;51.174;6.738;2023-05-29T10:18:27;23.55;;;21.35;;
48588;SDS011;34369;51.174;6.738;2023-05-29T10:21:05;23.25;;;21.15;;
48588;SDS011;34369;51.174;6.738;2023-05-29T10:23:43;23.60;;;21.60;;
48588;SDS011;34369;51.174;6.738;2023-05-29T10:26:19;23.10;;;21.10;;
48588;SDS011;34369;51.174;6.738;2023-05-29T10:29:00;22.98;;;20.98;;
48588;SDS011;34369;51.174;6.738;2023-05-29T10:31:45;23.48;;;21.38;;
48588;SDS011;34369;51.174;6.738;2023-05-29T10:37:15;23.92;;;21.85;;
48588;SDS011;34369;51.174;6.738;2023-05-29T10:40:04;23.45;;;21.52;;
48588;SDS011;34369;51.174;6.738;2023-05-29T10:42:42;23.10;;;21.08;;
48588;SDS011;34369;51.174;6.738;2023-05-29T10:54:06;23.17;;;21.30;;
48588;SDS011;34369;51.174;6.738;2023-05-29T10:56:53;22.45;;;20.58;;
48588;SDS011;34369;51.174;6.738;2023-05-29T10:59:36;21.80;;;19.85;;
48588;SDS011;34369;51.174;6.738;2023-05-29T11:02:11;22.23;;;20.15;;
48588;SDS011;34369;51.174;6.738;2023-05-29T11:05:05;21.42;;;19.42;;
48588;SDS011;34369;51.174;6.738;2023-05-29T11:07:58;20.17;;;18.25;;
48588;SDS011;34369;51.174;6.738;2023-05-29T11:10:42;20.08;;;18.38;;
48588;SDS011;34369;51.174;6.738;2023-05-29T11:13:31;19.85;;;18.13;;
48588;SDS011;34369;51.174;6.738;2023-05-29T11:16:10;20.35;;;18.52;;
48588;SDS011;34369;51.174;6.738;2023-05-29T11:18:45;20.67;;;18.80;;
48588;SDS011;34369;51.174;6.738;2023-05-29T11:21:22;20.58;;;18.73;;
48588;SDS011;34369;51.174;6.738;2023-05-29T11:24:05;20.90;;;18.98;;
48588;SDS011;34369;51.174;6.738;2023-05-29T11:26:39;20.85;;;18.95;;
48588;SDS011;34369;51.174;6.738;2023-05-29T11:29:20;20.40;;;18.60;;
48588;SDS011;34369;51.174;6.738;2023-05-29T11:31:57;20.80;;;19.00;;
48588;SDS011;34369;51.174;6.738;2023-05-29T11:34:35;20.83;;;19.05;;
48588;SDS011;34369;51.174;6.738;2023-05-29T11:37:12;20.48;;;18.65;;
48588;SDS011;34369;51.174;6.738;2023-05-29T11:39:48;20.00;;;18.30;;
48588;SDS011;34369;51.174;6.738;2023-05-29T11:42:21;20.38;;;18.55;;
48588;SDS011;34369;51.174;6.738;2023-05-29T11:44:55;20.58;;;18.67;;
48588;SDS011;34369;51.174;6.738;2023-05-29T11:47:52;20.92;;;18.88;;
48588;SDS011;34369;51.174;6.738;2023-05-29T11:50:26;20.42;;;18.52;;
48588;SDS011;34369;51.174;6.738;2023-05-29T11:53:01;21.38;;;19.40;;
48588;SDS011;34369;51.174;6.738;2023-05-29T11:55:35;20.17;;;18.48;;
48588;SDS011;34369;51.174;6.738;2023-05-29T11:58:08;20.60;;;18.77;;
48588;SDS011;34369;51.174;6.738;2023-05-29T12:00:41;20.73;;;19.02;;
48588;SDS011;34369;51.174;6.738;2023-05-29T12:03:18;21.50;;;19.70;;
48588;SDS011;34369;51.174;6.738;2023-05-29T12:05:52;21.02;;;19.15;;
48588;SDS011;34369;51.174;6.738;2023-05-29T12:08:25;20.50;;;18.80;;
48588;SDS011;34369;51.174;6.738;2023-05-29T12:10:59;20.70;;;18.83;;
48588;SDS011;34369;51.174;6.738;2023-05-29T12:13:34;21.35;;;19.45;;
48588;SDS011;34369;51.174;6.738;2023-05-29T12:16:07;20.80;;;18.92;;
48588;SDS011;34369;51.174;6.738;2023-05-29T12:18:39;20.75;;;18.95;;
48588;SDS011;34369;51.174;6.738;2023-05-29T12:21:12;21.13;;;19.13;;
48588;SDS011;34369;51.174;6.738;2023-05-29T12:23:46;20.73;;;18.83;;
48588;SDS011;34369;51.174;6.738;2023-05-29T12:26:26;20.83;;;19.00;;
48588;SDS011;34369;51.174;6.738;2023-05-29T12:29:03;20.70;;;18.80;;
48588;SDS011;34369;51.174;6.738;2023-05-29T12:31:37;20.83;;;18.80;;
48588;SDS011;34369;51.174;6.738;2023-05-29T12:34:10;20.50;;;18.58;;
48588;SDS011;34369;51.174;6.738;2023-05-29T12:36:45;21.23;;;19.33;;
48588;SDS011;34369;51.174;6.738;2023-05-29T12:39:20;21.10;;;19.30;;
48588;SDS011;34369;51.174;6.738;2023-05-29T12:41:56;21.75;;;19.75;;
48588;SDS011;34369;51.174;6.738;2023-05-29T12:44:29;21.58;;;19.83;;
48588;SDS011;34369;51.174;6.738;2023-05-29T12:47:04;21.20;;;19.40;;
48588;SDS011;34369;51.174;6.738;2023-05-29T12:49:44;21.35;;;19.33;;
48588;SDS011;34369;51.174;6.738;2023-05-29T12:52:20;21.58;;;19.77;;
48588;SDS011;34369;51.174;6.738;2023-05-29T12:54:56;20.80;;;19.13;;
48588;SDS011;34369;51.174;6.738;2023-05-29T12:57:30;21.05;;;19.35;;
48588;SDS011;34369;51.174;6.738;2023-05-29T13:00:03;22.20;;;20.20;;
48588;SDS011;34369;51.174;6.738;2023-05-29T13:02:40;21.25;;;19.45;;
48588;SDS011;34369;51.174;6.738;2023-05-29T13:05:12;21.67;;;19.88;;
48588;SDS011;34369;51.174;6.738;2023-05-29T13:07:46;21.35;;;19.60;;
48588;SDS011;34369;51.174;6.738;2023-05-29T13:10:21;21.33;;;19.63;;
48588;SDS011;34369;51.174;6.738;2023-05-29T13:22:10;21.67;;;19.80;;
48588;SDS011;34369;51.174;6.738;2023-05-29T13:24:46;21.58;;;19.67;;
48588;SDS011;34369;51.174;6.738;2023-05-29T13:27:21;21.73;;;19.85;;
48588;SDS011;34369;51.174;6.738;2023-05-29T13:29:55;21.40;;;19.50;;
48588;SDS011;34369;51.174;6.738;2023-05-29T13:32:28;20.85;;;19.10;;
48588;SDS011;34369;51.174;6.738;2023-05-29T13:35:01;21.30;;;19.60;;
48588;SDS011;34369;51.174;6.738;2023-05-29T13:37:35;21.38;;;19.58;;
48588;SDS011;34369;51.174;6.738;2023-05-29T13:40:08;21.20;;;19.40;;
48588;SDS011;34369;51.174;6.738;2023-05-29T13:42:42;21.70;;;19.73;;
48588;SDS011;34369;51.174;6.738;2023-05-29T13:45:21;21.65;;;19.75;;
48588;SDS011;34369;51.174;6.738;2023-05-29T13:47:54;21.25;;;19.35;;
48588;SDS011;34369;51.174;6.738;2023-05-29T13:50:26;20.83;;;19.08;;
48588;SDS011;34369;51.174;6.738;2023-05-29T13:53:02;21.65;;;19.75;;
48588;SDS011;34369;51.174;6.738;2023-05-29T13:55:36;20.60;;;18.90;;
48588;SDS011;34369;51.174;6.738;2023-05-29T13:58:10;21.90;;;19.85;;
48588;SDS011;34369;51.174;6.738;2023-05-29T14:00:44;20.83;;;19.02;;
48588;SDS011;34369;51.174;6.738;2023-05-29T14:03:17;21.45;;;19.55;;
48588;SDS011;34369;51.174;6.738;2023-05-29T14:05:51;22.10;;;20.30;;
48588;SDS011;34369;51.174;6.738;2023-05-29T14:08:27;21.33;;;19.42;;
48588;SDS011;34369;51.174;6.738;2023-05-29T14:11:03;22.55;;;20.30;;
48588;SDS011;34369;51.174;6.738;2023-05-29T14:13:36;20.60;;;18.90;;
48588;SDS011;34369;51.174;6.738;2023-05-29T14:16:14;20.67;;;18.98;;
48588;SDS011;34369;51.174;6.738;2023-05-29T14:18:48;20.65;;;19.05;;
48588;SDS011;34369;51.174;6.738;2023-05-29T14:21:33;21.90;;;19.90;;
48588;SDS011;34369;51.174;6.738;2023-05-29T14:24:14;21.70;;;19.90;;
48588;SDS011;34369;51.174;6.738;2023-05-29T14:26:52;20.83;;;19.13;;
48588;SDS011;34369;51.174;6.738;2023-05-29T14:29:30;21.88;;;20.08;;
48588;SDS011;34369;51.174;6.738;2023-05-29T14:32:06;21.15;;;19.42;;
48588;SDS011;34369;51.174;6.738;2023-05-29T14:34:41;21.58;;;19.88;;
48588;SDS011;34369;51.174;6.738;2023-05-29T14:37:13;22.00;;;20.15;;
48588;SDS011;34369;51.174;6.738;2023-05-29T14:39:45;21.98;;;20.17;;
48588;SDS011;34369;51.174;6.738;2023-05-29T14:42:18;21.17;;;19.30;;
48588;SDS011;34369;51.174;6.738;2023-05-29T14:44:51;21.15;;;19.45;;
48588;SDS011;34369;51.174;6.738;2023-05-29T14:47:24;21.30;;;19.48;;
48588;SDS011;34369;51.174;6.738;2023-05-29T14:49:59;21.65;;;19.95;;
48588;SDS011;34369;51.174;6.738;2023-05-29T14:55:29;22.55;;;20.55;;
48588;SDS011;34369;51.174;6.738;2023-05-29T14:58:08;21.52;;;19.75;;
48588;SDS011;34369;51.174;6.738;2023-05-29T15:00:40;22.00;;;20.20;;
48588;SDS011;34369;51.174;6.738;2023-05-29T15:03:14;21.75;;;20.05;;
48588;SDS011;34369;51.174;6.738;2023-05-29T15:09:00;21.73;;;19.92;;
48588;SDS011;34369;51.174;6.738;2023-05-29T15:11:37;22.13;;;20.33;;
48588;SDS011;34369;51.174;6.738;2023-05-29T15:14:12;22.33;;;20.35;;
48588;SDS011;34369;51.174;6.738;2023-05-29T15:16:53;22.00;;;20.20;;
48588;SDS011;34369;51.174;6.738;2023-05-29T15:19:34;22.92;;;20.92;;
48588;SDS011;34369;51.174;6.738;2023-05-29T15:22:07;22.40;;;20.40;;
48588;SDS011;34369;51.174;6.738;2023-05-29T15:24:45;21.95;;;20.15;;
48588;SDS011;34369;51.174;6.738;2023-05-29T15:27:23;22.40;;;20.50;;
48588;SDS011;34369;51.174;6.738;2023-05-29T15:30:07;21.98;;;20.17;;
48588;SDS011;34369;51.174;6.738;2023-05-29T15:32:49;21.55;;;19.85;;
48588;SDS011;34369;51.174;6.738;2023-05-29T15:35:25;22.25;;;20.35;;
48588;SDS011;34369;51.174;6.738;2023-05-29T15:38:28;21.80;;;19.95;;
48588;SDS011;34369;51.174;6.738;2023-05-29T15:41:03;21.77;;;19.88;;
48588;SDS011;34369;51.174;6.738;2023-05-29T15:43:40;22.27;;;20.35;;
48588;SDS011;34369;51.174;6.738;2023-05-29T15:46:13;22.42;;;20.60;;
48588;SDS011;34369;51.174;6.738;2023-05-29T15:48:51;21.80;;;19.98;;
48588;SDS011;34369;51.174;6.738;2023-05-29T15:51:26;21.83;;;20.03;;
48588;SDS011;34369;51.174;6.738;2023-05-29T15:53:59;22.25;;;20.30;;
48588;SDS011;34369;51.174;6.738;2023-05-29T15:56:31;21.42;;;19.63;;